Ray, Minnesota
Current Conditions -  °F | °C
As of 5:55 PM on Monday 20 Oct 2014 (Local Time) from KINL Reporting Station
Overcast Overcast  
Wind Chill: 44°   Ceiling: 2600
Heat Index: 46°   Visibility: 10mi
Dew Point: 35°   Wind: 5mph
Humidity: 66%   Direction: 30°NNE
Pressure: 30.07"   Gusts: NA
Location:  48.41°N, 93.21°W
Report Text: KINL 202255Z AUTO 03004KT 10SM OVC026 08/02 A3007 RMK AO2 SLP192 T00780017
Loading
Personal Weather Stations






























Interactive Weather Map
Tropical Storm Tracking
New forecast layout! Learn more

10-Day Weather Forecast

Advertisements
Track Severe Weather on mobile